Kaprifol — 5BXX2 — position and weather

sailwx.info

Track history (hours):
 
Tides and Currents Weather Stations Pressure Air Temp Water Temp Dewpoint Dewpoint Depression Visibility Wind Speed Wind Dir Waves Ship Positions

Kaprifol

Last reported at 2016-Jul-02 04:33 UTC. Time now 2016-Jul-02 05:52 UTC.
Position N 58°50' E 010°32'.

Length 90 m; draft 4.1 m.

Type: Tanker. MMSI: 210445000.

Date/timePositionNaut miles runAvg speedWind from/ knotsBaromVisibWave heightAir tempDewpointWater temp
2016-Jul-02 04:33N 58°50' E 010°32'1111.2
2016-Jul-02 03:33N 58°40' E 010°23'13 4.2
2016-Jul-02 00:30N 58°28' E 010°16'5 1.1
2016-Jul-01 20:04N 58°24' E 010°10'2 4.1
2016-Jul-01 19:28N 58°24' E 010°14'2 2.1
2016-Jul-01 18:25N 58°23' E 010°18'2 2.8
2016-Jul-01 17:33N 58°24' E 010°23'6 4.4
2016-Jul-01 16:03N 58°19' E 010°32'510.0
2016-Jul-01 15:33N 58°14' E 010°36'1010.2
2016-Jul-01 14:33N 58°05' E 010°45'1110.6
2016-Jul-01 13:33N 57°56' E 010°54'1210.8
2016-Jul-01 12:27N 57°45' E 011°04'1010.7
2016-Jul-01 11:33N 57°37' E 011°11'1110.6
2016-Jul-01 10:33N 57°29' E 011°25'1211.6
2016-Jul-01 09:33N 57°18' E 011°32'64 9.1
2016-Jul-01 02:33N 56°17' E 010°56'1010.4
2016-Jul-01 01:33N 56°09' E 010°46'9 9.3
2016-Jul-01 00:34N 56°05' E 010°30'1010.0
2016-Jun-30 23:33N 56°09' E 010°14'0 0.1
2016-Jun-30 22:33N 56°09' E 010°14'0 0.0
2016-Jun-30 21:33N 56°09' E 010°14'0 0.0
2016-Jun-30 20:33N 56°09' E 010°14'0 0.0
2016-Jun-30 19:33N 56°09' E 010°14'0 0.0
2016-Jun-30 18:33N 56°09' E 010°14'0 0.0
2016-Jun-30 17:33N 56°09' E 010°14'0 0.0
2016-Jun-30 16:33N 56°09' E 010°14'0 0.0
2016-Jun-30 15:33N 56°09' E 010°14'0 0.0
2016-Jun-30 14:33N 56°09' E 010°14'0 0.0
2016-Jun-30 13:33N 56°09' E 010°14'0 0.0
2016-Jun-30 12:33N 56°09' E 010°14'0 0.0
2016-Jun-30 11:33N 56°09' E 010°14'0 0.0
2016-Jun-30 10:33N 56°09' E 010°14'0 0.0
2016-Jun-30 09:33N 56°09' E 010°14'0 0.0
2016-Jun-30 08:33N 56°09' E 010°14'0 0.0
2016-Jun-30 07:33N 56°09' E 010°14'0 0.0
2016-Jun-30 06:33N 56°09' E 010°14'0 0.0
2016-Jun-30 05:33N 56°09' E 010°14'0 0.0
2016-Jun-30 04:30N 56°09' E 010°14'0 0.0
2016-Jun-30 03:33N 56°09' E 010°14'0 0.0
2016-Jun-30 02:33N 56°09' E 010°14'0 0.0
2016-Jun-30 01:33N 56°09' E 010°14'0 0.0
2016-Jun-30 00:33N 56°09' E 010°14'0 0.0
2016-Jun-29 23:33N 56°09' E 010°14'0 0.0
2016-Jun-29 22:33N 56°09' E 010°14'0 0.0
2016-Jun-29 21:33N 56°09' E 010°14'0 0.0
2016-Jun-29 20:33N 56°09' E 010°14'0 0.0
2016-Jun-29 19:33N 56°09' E 010°14'0 0.0
2016-Jun-29 18:33N 56°09' E 010°14'0 0.0
2016-Jun-29 17:33N 56°09' E 010°14'0 0.0
2016-Jun-29 16:33N 56°09' E 010°14'0 0.0
2016-Jun-29 15:32N 56°09' E 010°14'0 0.0
2016-Jun-29 14:33N 56°09' E 010°14'0 0.0
2016-Jun-29 13:32N 56°09' E 010°14'0 0.1
2016-Jun-29 12:32N 56°09' E 010°14'0 0.0
2016-Jun-29 11:32N 56°09' E 010°14'0 0.0
2016-Jun-29 10:32N 56°09' E 010°14'0 0.0
2016-Jun-29 09:32N 56°09' E 010°14'0 0.0
2016-Jun-29 08:32N 56°09' E 010°14'0 0.0
2016-Jun-29 07:32N 56°09' E 010°14'0 0.0
2016-Jun-29 06:32N 56°09' E 010°14'0 0.0
2016-Jun-29 05:29N 56°09' E 010°14'0 0.0
2016-Jun-29 04:32N 56°09' E 010°14'0 0.0
2016-Jun-29 03:32N 56°09' E 010°14'0 0.0
2016-Jun-29 02:33N 56°09' E 010°14'0 0.0
2016-Jun-29 01:34N 56°09' E 010°14'0 0.0
2016-Jun-29 00:34N 56°09' E 010°14'1 1.1
2016-Jun-28 23:34N 56°09' E 010°16'10 9.9
2016-Jun-28 22:33N 56°05' E 010°32'8 8.2
2016-Jun-28 21:33N 56°09' E 010°45'10 9.8
2016-Jun-28 20:33N 56°17' E 010°55'39 9.8
2016-Jun-28 16:33N 56°43' E 011°48'9 8.9
2016-Jun-28 15:33N 56°52' E 011°46'1110.4
2016-Jun-28 14:33N 57°02' E 011°39'1010.4
2016-Jun-28 13:33N 57°11' E 011°33'1110.5
2016-Jun-28 12:33N 57°22' E 011°27'1111.0
2016-Jun-28 11:34N 57°31' E 011°17'1111.2
2016-Jun-28 10:33N 57°39' E 011°02'1111.1
2016-Jun-28 09:32N 57°47' E 010°46'12510.4
2016-Jun-27 21:33N 57°43' E 006°53'1010.0
2016-Jun-27 20:32N 57°45' E 006°34'1010.6
2016-Jun-27 19:33N 57°52' E 006°19'1010.3
2016-Jun-27 18:33N 57°58' E 006°04'4410.5
2016-Jun-27 14:21N 58°27' E 005°01'1111.8
2016-Jun-27 13:23N 58°36' E 004°47'318 8.6
2016-Jun-26 00:26N 63°29' E 009°01'1010.3
2016-Jun-25 23:29N 63°34' E 009°20'910.0
2016-Jun-25 22:33N 63°42' E 009°30'  
2016-Jun-22 18:14N 63°44' E 009°32'810.4
2016-Jun-22 17:30N 63°37' E 009°27'10 9.8
2016-Jun-22 16:32N 63°31' E 009°10'  
Track history (hours):
 
Tides and Currents Weather Stations Pressure Air Temp Water Temp Dewpoint Dewpoint Depression Visibility Wind Speed Wind Dir Waves Ship Positions

Kaprifol

Last reported at 2016-Jul-02 04:33 UTC. Time now 2016-Jul-02 05:52 UTC.
Position N 58°50' E 010°32'.

Length 90 m; draft 4.1 m.

Type: Tanker. MMSI: 210445000.

Date/timePositionNaut miles runAvg speedWind from/ knotsBaromVisibWave heightAir tempDewpointWater temp
2016-Jul-02 04:33N 58°50' E 010°32'1111.2
2016-Jul-02 03:33N 58°40' E 010°23'13 4.2
2016-Jul-02 00:30N 58°28' E 010°16'5 1.1
2016-Jul-01 20:04N 58°24' E 010°10'2 4.1
2016-Jul-01 19:28N 58°24' E 010°14'2 2.1
2016-Jul-01 18:25N 58°23' E 010°18'2 2.8
2016-Jul-01 17:33N 58°24' E 010°23'6 4.4
2016-Jul-01 16:03N 58°19' E 010°32'510.0
2016-Jul-01 15:33N 58°14' E 010°36'1010.2
2016-Jul-01 14:33N 58°05' E 010°45'1110.6
2016-Jul-01 13:33N 57°56' E 010°54'1210.8
2016-Jul-01 12:27N 57°45' E 011°04'1010.7
2016-Jul-01 11:33N 57°37' E 011°11'1110.6
2016-Jul-01 10:33N 57°29' E 011°25'1211.6
2016-Jul-01 09:33N 57°18' E 011°32'64 9.1
2016-Jul-01 02:33N 56°17' E 010°56'1010.4
2016-Jul-01 01:33N 56°09' E 010°46'9 9.3
2016-Jul-01 00:34N 56°05' E 010°30'1010.0
2016-Jun-30 23:33N 56°09' E 010°14'0 0.1
2016-Jun-30 22:33N 56°09' E 010°14'0 0.0
2016-Jun-30 21:33N 56°09' E 010°14'0 0.0
2016-Jun-30 20:33N 56°09' E 010°14'0 0.0
2016-Jun-30 19:33N 56°09' E 010°14'0 0.0
2016-Jun-30 18:33N 56°09' E 010°14'0 0.0
2016-Jun-30 17:33N 56°09' E 010°14'0 0.0
2016-Jun-30 16:33N 56°09' E 010°14'0 0.0
2016-Jun-30 15:33N 56°09' E 010°14'0 0.0
2016-Jun-30 14:33N 56°09' E 010°14'0 0.0
2016-Jun-30 13:33N 56°09' E 010°14'0 0.0
2016-Jun-30 12:33N 56°09' E 010°14'0 0.0
2016-Jun-30 11:33N 56°09' E 010°14'0 0.0
2016-Jun-30 10:33N 56°09' E 010°14'0 0.0
2016-Jun-30 09:33N 56°09' E 010°14'0 0.0
2016-Jun-30 08:33N 56°09' E 010°14'0 0.0
2016-Jun-30 07:33N 56°09' E 010°14'0 0.0
2016-Jun-30 06:33N 56°09' E 010°14'0 0.0
2016-Jun-30 05:33N 56°09' E 010°14'0 0.0
2016-Jun-30 04:30N 56°09' E 010°14'0 0.0
2016-Jun-30 03:33N 56°09' E 010°14'0 0.0
2016-Jun-30 02:33N 56°09' E 010°14'0 0.0
2016-Jun-30 01:33N 56°09' E 010°14'0 0.0
2016-Jun-30 00:33N 56°09' E 010°14'0 0.0
2016-Jun-29 23:33N 56°09' E 010°14'0 0.0
2016-Jun-29 22:33N 56°09' E 010°14'0 0.0
2016-Jun-29 21:33N 56°09' E 010°14'0 0.0
2016-Jun-29 20:33N 56°09' E 010°14'0 0.0
2016-Jun-29 19:33N 56°09' E 010°14'0 0.0
2016-Jun-29 18:33N 56°09' E 010°14'0 0.0
2016-Jun-29 17:33N 56°09' E 010°14'0 0.0
2016-Jun-29 16:33N 56°09' E 010°14'0 0.0
2016-Jun-29 15:32N 56°09' E 010°14'0 0.0
2016-Jun-29 14:33N 56°09' E 010°14'0 0.0
2016-Jun-29 13:32N 56°09' E 010°14'0 0.1
2016-Jun-29 12:32N 56°09' E 010°14'0 0.0
2016-Jun-29 11:32N 56°09' E 010°14'0 0.0
2016-Jun-29 10:32N 56°09' E 010°14'0 0.0
2016-Jun-29 09:32N 56°09' E 010°14'0 0.0
2016-Jun-29 08:32N 56°09' E 010°14'0 0.0
2016-Jun-29 07:32N 56°09' E 010°14'0 0.0
2016-Jun-29 06:32N 56°09' E 010°14'0 0.0
2016-Jun-29 05:29N 56°09' E 010°14'0 0.0
2016-Jun-29 04:32N 56°09' E 010°14'0 0.0
2016-Jun-29 03:32N 56°09' E 010°14'0 0.0
2016-Jun-29 02:33N 56°09' E 010°14'0 0.0
2016-Jun-29 01:34N 56°09' E 010°14'0 0.0
2016-Jun-29 00:34N 56°09' E 010°14'1 1.1
2016-Jun-28 23:34N 56°09' E 010°16'10 9.9
2016-Jun-28 22:33N 56°05' E 010°32'8 8.2
2016-Jun-28 21:33N 56°09' E 010°45'10 9.8
2016-Jun-28 20:33N 56°17' E 010°55'39 9.8
2016-Jun-28 16:33N 56°43' E 011°48'9 8.9
2016-Jun-28 15:33N 56°52' E 011°46'1110.4
2016-Jun-28 14:33N 57°02' E 011°39'1010.4
2016-Jun-28 13:33N 57°11' E 011°33'1110.5
2016-Jun-28 12:33N 57°22' E 011°27'1111.0
2016-Jun-28 11:34N 57°31' E 011°17'1111.2
2016-Jun-28 10:33N 57°39' E 011°02'1111.1
2016-Jun-28 09:32N 57°47' E 010°46'12510.4
2016-Jun-27 21:33N 57°43' E 006°53'1010.0
2016-Jun-27 20:32N 57°45' E 006°34'1010.6
2016-Jun-27 19:33N 57°52' E 006°19'1010.3
2016-Jun-27 18:33N 57°58' E 006°04'4410.5
2016-Jun-27 14:21N 58°27' E 005°01'1111.8
2016-Jun-27 13:23N 58°36' E 004°47'318 8.6
2016-Jun-26 00:26N 63°29' E 009°01'1010.3
2016-Jun-25 23:29N 63°34' E 009°20'910.0
2016-Jun-25 22:33N 63°42' E 009°30'  
2016-Jun-22 18:14N 63°44' E 009°32'810.4
2016-Jun-22 17:30N 63°37' E 009°27'10 9.8
2016-Jun-22 16:32N 63°31' E 009°10'  

Dump ship's entire track history